EDT,Max TemperatureF,Mean TemperatureF,Min TemperatureF,Max Dew PointF,MeanDew PointF,Min DewpointF,Max Humidity, Mean Humidity, Min Humidity, Max Sea Level PressureIn, Mean Sea Level PressureIn, Min Sea Level PressureIn, Max VisibilityMiles, Mean VisibilityMiles, Min VisibilityMiles, Max Wind SpeedMPH, Mean Wind SpeedMPH, Max Gust SpeedMPH,PrecipitationIn, CloudCover, Events, WindDirDegrees
2013-10-1,81,67,53,60,56,52,100,70,39,30.14,30.08,30.05,10,7,1,15,3,18,0.00,0,,65
2013-10-2,84,71,57,67,61,57,100,73,46,30.14,30.11,30.07,10,10,7,12,4,14,0.00,0,,213
2013-10-3,80,71,61,71,65,61,100,81,62,30.16,30.12,30.10,10,6,1,9,3,13,0.00,2,,108
2013-10-4,83,74,64,72,67,64,100,78,55,30.15,30.11,30.08,10,3,0,13,3,16,0.00,1,Fog,123
2013-10-5,83,73,63,71,67,63,100,77,54,30.14,30.10,30.06,10,4,0,12,4,16,0.00,1,Fog,103
2013-10-6,80,74,67,74,69,66,100,88,76,30.06,30.02,29.96,10,6,0,15,5,17,T,3,Fog,116
2013-10-7,79,75,71,74,72,68,94,87,79,29.94,29.89,29.83,10,9,2,13,6,17,0.16,5,Rain,152
2013-10-8,72,65,57,70,61,55,93,89,84,30.08,29.99,29.88,10,9,4,23,14,31,0.23,8,Rain,17
2013-10-9,72,65,57,61,57,55,93,80,66,30.06,30.03,30.01,10,10,2,18,11,28,0.03,8,Rain,356
2013-10-10,68,64,59,59,56,54,90,79,68,30.01,29.98,29.94,10,10,10,15,7,23,0.00,8,,327
2013-10-11,77,70,63,64,61,59,93,75,56,29.98,29.95,29.91,10,10,9,13,3,20,0.00,6,,317
2013-10-12,80,71,61,63,62,60,100,77,54,30.06,30.00,29.95,10,10,10,12,4,16,0.00,5,,6
2013-10-13,75,69,62,65,64,61,100,87,73,30.13,30.08,30.05,10,10,10,13,6,18,T,7,,351
2013-10-14,79,73,66,65,64,61,87,76,64,30.14,30.10,30.06,10,10,10,21,11,26,0.00,7,,22
2013-10-15,73,67,61,63,60,57,93,81,68,30.12,30.06,30.02,10,10,9,15,8,18,0.00,7,,20
2013-10-16,74,66,58,63,62,59,97,83,68,30.04,30.00,29.96,10,10,6,12,4,13,0.00,6,,2
2013-10-17,78,67,56,68,61,57,100,79,58,29.99,29.95,29.90,10,6,1,15,6,18,0.00,0,,211
2013-10-18,76,70,64,70,66,62,100,91,82,30.00,29.96,29.91,10,10,6,9,3,13,0.05,7,Rain,81
2013-10-19,77,71,64,72,67,60,100,87,73,29.96,29.92,29.87,10,6,0,9,2,29,0.67,7,Fog-Rain,259
2013-10-20,70,62,54,62,54,50,86,69,51,30.09,30.01,29.91,10,10,7,20,7,26,0.01,4,Rain,19
2013-10-21,71,63,54,58,54,50,93,73,53,30.13,30.07,30.03,10,10,10,12,5,15,0.00,4,,22
2013-10-22,68,63,58,62,57,53,100,84,68,30.02,29.94,29.86,10,9,5,6,1,14,0.16,4,Rain,334
2013-10-23,73,63,52,61,53,35,97,65,33,30.00,29.80,29.72,10,8,2,20,7,30,0.06,4,Rain,267
2013-10-24,63,52,40,45,37,31,92,63,34,30.19,30.13,30.03,10,10,10,13,4,17,0.00,0,,328
2013-10-25,61,49,36,43,37,29,100,66,31,30.36,30.25,30.14,10,10,10,20,6,25,0.00,1,,7
2013-10-26,65,49,33,45,37,31,92,63,34,30.34,30.24,30.14,10,10,10,12,3,15,0.00,0,,346
2013-10-27,66,54,42,51,44,39,100,71,42,30.16,30.12,30.09,10,10,4,9,3,12,0.00,0,,232
2013-10-28,72,61,49,61,55,48,100,81,61,30.26,30.21,30.14,10,6,1,8,2,12,T,2,,169
2013-10-29,73,62,50,59,54,50,100,81,61,30.32,30.27,30.24,10,3,0,9,2,12,0.00,1,Fog,120
2013-10-30,74,62,50,61,55,50,100,77,53,30.32,30.26,30.20,10,3,0,10,2,13,0.00,0,Fog,156
2013-10-31,75,64,53,68,57,52,100,79,57,30.22,30.17,30.01,10,4,0,22,5,30,T,2,Fog-Rain,163